地図

経路データ

SID SEASON NUMBER BASIN SUBBASIN NAME ISO_TIME NATURE LAT LON WMO_WIND WMO_PRES WMO_AGENCY TRACK_TYPE DIST2LAND LANDFALL IFLAG USA_AGENCY USA_ATCF_ID USA_LAT USA_LON USA_RECORD USA_STATUS USA_WIND USA_PRES USA_SSHS USA_R34_NE USA_R34_SE USA_R34_SW USA_R34_NW USA_R50_NE USA_R50_SE USA_R50_SW USA_R50_NW USA_R64_NE USA_R64_SE USA_R64_SW USA_R64_NW USA_POCI USA_ROCI USA_RMW USA_EYE TOKYO_LAT TOKYO_LON TOKYO_GRADE TOKYO_WIND TOKYO_PRES TOKYO_R50_DIR TOKYO_R50_LONG TOKYO_R50_SHORT TOKYO_R30_DIR TOKYO_R30_LONG TOKYO_R30_SHORT TOKYO_LAND CMA_LAT CMA_LON CMA_CAT CMA_WIND CMA_PRES HKO_LAT HKO_LON HKO_CAT HKO_WIND HKO_PRES NEWDELHI_LAT NEWDELHI_LON NEWDELHI_GRADE NEWDELHI_WIND NEWDELHI_PRES NEWDELHI_CI NEWDELHI_DP NEWDELHI_POCI REUNION_LAT REUNION_LON REUNION_TYPE REUNION_WIND REUNION_PRES REUNION_TNUM REUNION_CI REUNION_RMW REUNION_R34_NE REUNION_R34_SE REUNION_R34_SW REUNION_R34_NW REUNION_R50_NE REUNION_R50_SE REUNION_R50_SW REUNION_R50_NW REUNION_R64_NE REUNION_R64_SE REUNION_R64_SW REUNION_R64_NW BOM_LAT BOM_LON BOM_TYPE BOM_WIND BOM_PRES BOM_TNUM BOM_CI BOM_RMW BOM_R34_NE BOM_R34_SE BOM_R34_SW BOM_R34_NW BOM_R50_NE BOM_R50_SE BOM_R50_SW BOM_R50_NW BOM_R64_NE BOM_R64_SE BOM_R64_SW BOM_R64_NW BOM_ROCI BOM_POCI BOM_EYE BOM_POS_METHOD BOM_PRES_METHOD NADI_LAT NADI_LON NADI_CAT NADI_WIND NADI_PRES WELLINGTON_LAT WELLINGTON_LON WELLINGTON_WIND WELLINGTON_PRES DS824_LAT DS824_LON DS824_STAGE DS824_WIND DS824_PRES TD9636_LAT TD9636_LON TD9636_STAGE TD9636_WIND TD9636_PRES TD9635_LAT TD9635_LON TD9635_WIND TD9635_PRES TD9635_ROCI NEUMANN_LAT NEUMANN_LON NEUMANN_CLASS NEUMANN_WIND NEUMANN_PRES MLC_LAT MLC_LON MLC_CLASS MLC_WIND MLC_PRES USA_GUST BOM_GUST BOM_GUST_PER REUNION_GUST REUNION_GUST_PER USA_SEAHGT USA_SEARAD_NE USA_SEARAD_SE USA_SEARAD_SW USA_SEARAD_NW STORM_SPEED STORM_DIR
1967027S18173 1967 10 SP MM NOT_NAMED 1967-01-27 00:00:00 TS -18.0000 173.100 main 433 433 O________OO___ jtwc_sh SH171967 -18.0000 173.100 -1 -18.0000 173.100 TC -18.0000 173.100 1 3 269
1967027S18173 1967 10 SP MM NOT_NAMED 1967-01-27 03:00:00 TS -18.0020 172.947 main 454 454 P________PP___ SH171967 -17.9975 172.950 -1 -17.9975 172.950 TC -18.0111 172.941 1 3 269
1967027S18173 1967 10 SP MM NOT_NAMED 1967-01-27 06:00:00 TS -18.0059 172.795 main 465 465 O________OP___ jtwc_sh SH171967 -18.0000 172.800 -1 -18.0000 172.800 TC -18.0177 172.785 1 3 268
1967027S18173 1967 10 SP MM NOT_NAMED 1967-01-27 09:00:00 TS -18.0101 172.646 main 486 486 P________PP___ SH171967 -18.0075 172.650 -1 -18.0075 172.650 TC -18.0154 172.637 1 3 271
1967027S18173 1967 10 SP MM NOT_NAMED 1967-01-27 12:00:00 TS -18.0000 172.500 main 497 497 O________OO___ jtwc_sh SH171967 -18.0000 172.500 -1 -18.0000 172.500 TC -18.0000 172.500 1 3 280
1967027S18173 1967 10 SP MM NOT_NAMED 1967-01-27 15:00:00 TS -17.9611 172.354 main 507 489 P________PP___ SH171967 -17.9575 172.342 -1 -17.9575 172.342 TC -17.9683 172.376 1 3 289
1967027S18173 1967 10 SP MM NOT_NAMED 1967-01-27 18:00:00 TS -17.9075 172.219 main 489 479 O________OP___ jtwc_sh SH171967 -17.9000 172.200 -1 -17.9000 172.200 TC -17.9224 172.258 1 3 295
1967027S18173 1967 10 SP MM NOT_NAMED 1967-01-27 21:00:00 TS -17.8551 172.112 main 479 465 P________PP___ SH171967 -17.8500 172.100 -1 -17.8500 172.100 TC -17.8652 172.135 1 2 297
1967027S18173 1967 10 SP MM NOT_NAMED 1967-01-28 00:00:00 TS -17.8000 172.000 main 465 455 O________OO___ jtwc_sh SH171967 -17.8000 172.000 -1 -17.8000 172.000 TC -17.8000 172.000 1 3 294
1967027S18173 1967 10 SP MM NOT_NAMED 1967-01-28 03:00:00 TS -17.7477 171.851 main 452 432 P________PP___ SH171967 -17.7575 171.865 -1 -17.7575 171.865 TC -17.7282 171.823 1 3 291
1967027S18173 1967 10 SP MM NOT_NAMED 1967-01-28 06:00:00 TS -17.6834 171.678 main 432 408 O________OP___ jtwc_sh SH171967 -17.7000 171.700 -1 -17.7000 171.700 TC -17.6501 171.635 1 4 294
1967027S18173 1967 10 SP MM NOT_NAMED 1967-01-28 09:00:00 TS -17.5907 171.480 main 408 385 P________PP___ SH171967 -17.6000 171.492 -1 -17.6000 171.492 TC -17.5720 171.454 1 4 297
1967027S18173 1967 10 SP MM NOT_NAMED 1967-01-28 12:00:00 TS -17.5000 171.300 main 385 372 O________OO___ jtwc_sh SH171967 -17.5000 171.300 -1 -17.5000 171.300 TC -17.5000 171.300 1 3 299
1967027S18173 1967 10 SP MM NOT_NAMED 1967-01-28 15:00:00 TS -17.4344 171.189 main 372 362 P________PP___ SH171967 -17.4425 171.178 -1 -17.4425 171.178 TC -17.4183 171.212 1 2 303
1967027S18173 1967 10 SP MM NOT_NAMED 1967-01-28 18:00:00 TS -17.3824 171.117 main 362 359 O________OP___ jtwc_sh SH171967 -17.4000 171.100 -1 -17.4000 171.100 TC -17.3473 171.150 1 2 319
1967027S18173 1967 10 SP MM NOT_NAMED 1967-01-28 21:00:00 TS -17.3192 171.077 main 359 349 P________PP___ SH171967 -17.3274 171.072 -1 -17.3274 171.072 TC -17.3027 171.087 1 1 307
1967027S18173 1967 10 SP MM NOT_NAMED 1967-01-29 00:00:00 TS -17.3000 171.000 main 349 328 O________OO___ jtwc_sh SH171967 -17.3000 171.000 -1 -17.3000 171.000 TC -17.3000 171.000 1 3 259
1967027S18173 1967 10 SP MM NOT_NAMED 1967-01-29 03:00:00 TS -17.3748 170.771 main 331 304 P________PP___ SH171967 -17.3776 170.758 -1 -17.3776 170.758 TC -17.3693 170.797 1 5 247
1967027S18173 1967 10 SP MM NOT_NAMED 1967-01-29 06:00:00 TS -17.4926 170.525 main 304 294 O________OP___ jtwc_sh SH171967 -17.5000 170.500 -1 -17.5000 170.500 TC -17.4777 170.576 1 5 240
1967027S18173 1967 10 SP MM NOT_NAMED 1967-01-29 09:00:00 TS -17.6041 170.357 main 298 288 P________PP___ SH171967 -17.6074 170.340 -1 -17.6074 170.340 TC -17.5973 170.391 1 3 226
1967027S18173 1967 10 SP MM NOT_NAMED 1967-01-29 12:00:00 TS -17.7000 170.300 main 292 292 O________OO___ jtwc_sh SH171967 -17.7000 170.300 -1 -17.7000 170.300 TC -17.7000 170.300 1 2 166
1967027S18173 1967 10 SP MM NOT_NAMED 1967-01-29 15:00:00 TS -17.7670 170.395 main 307 307 P________PP___ SH171967 -17.7650 170.405 -1 -17.7650 170.405 TC -17.7710 170.374 1 3 112
1967027S18173 1967 10 SP MM NOT_NAMED 1967-01-29 18:00:00 TS -17.8059 170.582 main 326 326 O________OP___ jtwc_sh SH171967 -17.8000 170.600 -1 -17.8000 170.600 TC -17.8176 170.545 1 4 99
1967027S18173 1967 10 SP MM NOT_NAMED 1967-01-29 21:00:00 TS -17.8251 170.789 main 345 345 P________PP___ SH171967 -17.8225 170.800 -1 -17.8225 170.800 TC -17.8304 170.768 1 4 89
1967027S18173 1967 10 SP MM NOT_NAMED 1967-01-30 00:00:00 TS -17.8000 171.000 main 365 365 O________OO___ jtwc_sh SH171967 -17.8000 171.000 -1 -17.8000 171.000 TC -17.8000 171.000 1 4 75
1967027S18173 1967 10 SP MM NOT_NAMED 1967-01-30 03:00:00 TS -17.7278 171.171 main 381 381 P________PP___ SH171967 -17.7225 171.150 -1 -17.7225 171.150 TC -17.7385 171.212 1 4 60
1967027S18173 1967 10 SP MM NOT_NAMED 1967-01-30 06:00:00 TS -17.6109 171.339 main 388 388 O________OP___ jtwc_sh SH171967 -17.6000 171.300 -1 -17.6000 171.300 TC -17.6326 171.418 1 4 55
1967027S18173 1967 10 SP MM NOT_NAMED 1967-01-30 09:00:00 TS -17.4818 171.540 main 406 406 P________PP___ SH171967 -17.4800 171.515 -1 -17.4800 171.515 TC -17.4854 171.590 1 5 48
1967027S18173 1967 10 SP MM NOT_NAMED 1967-01-30 12:00:00 TS -17.3000 171.700 main 422 420 O________OO___ jtwc_sh SH171967 -17.3000 171.700 -1 -17.3000 171.700 TC -17.3000 171.700 1 5 26
1967027S18173 1967 10 SP MM NOT_NAMED 1967-01-30 15:00:00 TS -17.0214 171.783 main 428 426 P________PP___ SH171967 -17.0075 171.803 -1 -17.0075 171.803 TC -17.0492 171.743 1 6 6
1967027S18173 1967 10 SP MM NOT_NAMED 1967-01-30 18:00:00 TS -16.7233 171.773 main 426 415 O________OP___ jtwc_sh SH171967 -16.7000 171.800 -1 -16.7000 171.800 TC -16.7698 171.720 1 6 349
1967027S18173 1967 10 SP MM NOT_NAMED 1967-01-30 21:00:00 TS -16.4768 171.670 main 415 395 P________PP___ SH171967 -16.4625 171.687 -1 -16.4625 171.687 TC -16.5054 171.637 1 5 328
1967027S18173 1967 10 SP MM NOT_NAMED 1967-01-31 00:00:00 TS -16.3000 171.500 main 395 373 O________OO___ jtwc_sh SH171967 -16.3000 171.500 -1 -16.3000 171.500 TC -16.3000 171.500 1 4 308
1967027S18173 1967 10 SP MM NOT_NAMED 1967-01-31 03:00:00 TS -16.2181 171.320 main 373 352 P________PP___ SH171967 -16.2200 171.315 -1 -16.2200 171.315 TC -16.2145 171.330 1 4 285
1967027S18173 1967 10 SP MM NOT_NAMED 1967-01-31 06:00:00 TS -16.1967 171.103 main 352 331 O________OP___ jtwc_sh SH171967 -16.2000 171.100 -1 -16.2000 171.100 TC -16.1901 171.110 1 4 273
1967027S18173 1967 10 SP MM NOT_NAMED 1967-01-31 09:00:00 TS -16.1986 170.854 main 331 299 P________PP___ SH171967 -16.2000 170.850 -1 -16.2000 170.850 TC -16.1957 170.861 1 5 270
1967027S18173 1967 10 SP MM NOT_NAMED 1967-01-31 12:00:00 TS -16.2000 170.600 main 299 277 O________OO___ jtwc_sh SH171967 -16.2000 170.600 -1 -16.2000 170.600 TC -16.2000 170.600 1 4 276
1967027S18173 1967 10 SP MM NOT_NAMED 1967-01-31 15:00:00 TS -16.1544 170.406 main 277 257 P________PP___ SH171967 -16.1574 170.408 -1 -16.1574 170.408 TC -16.1485 170.402 1 4 285
1967027S18173 1967 10 SP MM NOT_NAMED 1967-01-31 18:00:00 TS -16.0972 170.197 main 257 236 O________OP___ jtwc_sh SH171967 -16.1000 170.200 -1 -16.1000 170.200 TC -16.0916 170.190 1 5 284
1967027S18173 1967 10 SP MM NOT_NAMED 1967-01-31 21:00:00 TS -16.0412 169.941 main 226 195 P________PP___ SH171967 -16.0424 169.945 -1 -16.0424 169.945 TC -16.0390 169.933 1 6 280
1967027S18173 1967 10 SP MM NOT_NAMED 1967-02-01 00:00:00 TS -16.0000 169.600 main 195 153 O________OO___ jtwc_sh SH171967 -16.0000 169.600 -1 -16.0000 169.600 TC -16.0000 169.600 1 8 274
1967027S18173 1967 10 SP MM NOT_NAMED 1967-02-01 03:00:00 TS -15.9930 169.144 main 142 91 P________PP___ SH171967 -15.9925 169.138 -1 -15.9925 169.138 TC -15.9940 169.158 1 9 270
1967027S18173 1967 10 SP MM NOT_NAMED 1967-02-01 06:00:00 TS -16.0001 168.613 main 91 46 O________OP___ jtwc_sh SH171967 -16.0000 168.600 -1 -16.0000 168.600 TC -16.0004 168.640 1 10 269
1967027S18173 1967 10 SP MM NOT_NAMED 1967-02-01 09:00:00 TS -16.0121 168.064 main 46 10 P________PP___ SH171967 -16.0149 168.058 -1 -16.0149 168.058 TC -16.0064 168.077 1 11 270
1967027S18173 1967 10 SP MM NOT_NAMED 1967-02-01 12:00:00 TS -16.0000 167.500 main 10 0 O________OO___ jtwc_sh SH171967 -16.0000 167.500 -1 -16.0000 167.500 TC -16.0000 167.500 1 11 276
1967027S18173 1967 10 SP MM NOT_NAMED 1967-02-01 15:00:00 TS -15.9026 166.926 main 24 22 P________PP___ SH171967 -15.8999 166.950 -1 -15.8999 166.950 TC -15.9082 166.879 1 11 280
1967027S18173 1967 10 SP MM NOT_NAMED 1967-02-01 18:00:00 TS -15.8037 166.355 main 44 44 O________OP___ jtwc_sh SH171967 -15.8000 166.400 -1 -15.8000 166.400 TC -15.8111 166.264 1 11 278
1967027S18173 1967 10 SP MM NOT_NAMED 1967-02-01 21:00:00 TS -15.7512 165.776 main 96 96 P________PP___ SH171967 -15.7476 165.805 -1 -15.7476 165.805 TC -15.7582 165.717 1 10 270
1967027S18173 1967 10 SP MM NOT_NAMED 1967-02-02 00:00:00 TS -15.8000 165.300 main 146 146 O________OO___ jtwc_sh SH171967 -15.8000 165.300 -1 -15.8000 165.300 TC -15.8000 165.300 1 8 252
1967027S18173 1967 10 SP MM NOT_NAMED 1967-02-02 03:00:00 TS -16.0004 164.985 main 184 184 P________PP___ SH171967 -15.9973 164.953 -1 -15.9973 164.953 TC -16.0066 165.048 1 7 221
1967027S18173 1967 10 SP MM NOT_NAMED 1967-02-02 06:00:00 TS -16.3030 164.844 main 217 217 O________OP___ jtwc_sh SH171967 -16.3000 164.800 -1 -16.3000 164.800 TC -16.3089 164.933 1 7 189
1967027S18173 1967 10 SP MM NOT_NAMED 1967-02-02 09:00:00 TS -16.6523 164.869 main 231 231 P________PP___ SH171967 -16.6500 164.840 -1 -16.6500 164.840 TC -16.6569 164.926 1 7 168
1967027S18173 1967 10 SP MM NOT_NAMED 1967-02-02 12:00:00 TS -17.0000 165.000 main 240 239 O________OO___ jtwc_sh SH171967 -17.0000 165.000 -1 -17.0000 165.000 TC -17.0000 165.000 1 7 160
1967027S18173 1967 10 SP MM NOT_NAMED 1967-02-02 15:00:00 TS -17.2783 165.115 main 251 242 P________PP___ SH171967 -17.2650 165.135 -1 -17.2650 165.135 TC -17.3048 165.074 1 6 154
1967027S18173 1967 10 SP MM NOT_NAMED 1967-02-02 18:00:00 TS -17.5299 165.274 main 247 247 O________OP___ jtwc_sh SH171967 -17.5000 165.300 -1 -17.5000 165.300 TC -17.5897 165.222 1 6 148
1967027S18173 1967 10 SP MM NOT_NAMED 1967-02-02 21:00:00 TS -17.7965 165.458 main 248 246 P________PP___ SH171967 -17.7799 165.470 -1 -17.7799 165.470 TC -17.8298 165.434 1 6 139
1967027S18173 1967 10 SP MM NOT_NAMED 1967-02-03 00:00:00 TS -18.0000 165.700 main 246 231 O________OO___ jtwc_sh SH171967 -18.0000 165.700 -1 -18.0000 165.700 TC -18.0000 165.700 1 6 119
1967027S18173 1967 10 SP MM NOT_NAMED 1967-02-03 03:00:00 TS -18.0983 166.028 main 231 204 P________PP___ SH171967 -18.0950 166.028 -1 -18.0950 166.028 TC -18.1048 166.028 1 7 100
1967027S18173 1967 10 SP MM NOT_NAMED 1967-02-03 06:00:00 TS -18.1119 166.400 main 204 183 O________OP___ jtwc_sh SH171967 -18.1000 166.400 -1 -18.1000 166.400 TC -18.1357 166.400 1 7 89
1967027S18173 1967 10 SP MM NOT_NAMED 1967-02-03 09:00:00 TS -18.0913 166.782 main 183 162 P________PP___ SH171967 -18.0876 166.788 -1 -18.0876 166.788 TC -18.0986 166.772 1 7 80
1967027S18173 1967 10 SP MM NOT_NAMED 1967-02-03 12:00:00 TS -18.0000 167.100 main 162 138 O________OO___ jtwc_sh SH171967 -18.0000 167.100 -1 -18.0000 167.100 TC -18.0000 167.100 1 5 57
1967027S18173 1967 10 SP MM NOT_NAMED 1967-02-03 15:00:00 TS -17.8094 167.232 main 138 113 P________PP___ SH171967 -17.8223 167.215 -1 -17.8223 167.215 TC -17.7834 167.265 1 5 28
1967027S18173 1967 10 SP MM NOT_NAMED 1967-02-03 18:00:00 TS -17.5745 167.330 main 113 78 O________OP___ jtwc_sh SH171967 -17.6000 167.300 -1 -17.6000 167.300 TC -17.5236 167.391 1 5 28
1967027S18173 1967 10 SP MM NOT_NAMED 1967-02-03 21:00:00 TS -17.3322 167.504 main 78 67 P________PP___ SH171967 -17.3473 167.483 -1 -17.3473 167.483 TC -17.3020 167.547 1 6 50
1967027S18173 1967 10 SP MM NOT_NAMED 1967-02-04 00:00:00 TS -17.2000 167.800 main 67 67 O________OO___ jtwc_sh SH171967 -17.2000 167.800 -1 -17.2000 167.800 TC -17.2000 167.800 1 7 85
1967027S18173 1967 10 SP MM NOT_NAMED 1967-02-04 03:00:00 TS -17.2720 168.284 main 94 94 P________PP___ SH171967 -17.2677 168.305 -1 -17.2677 168.305 TC -17.2806 168.242 1 11 106
1967027S18173 1967 10 SP MM NOT_NAMED 1967-02-04 06:00:00 TS -17.4970 168.863 main 154 154 O________OP___ jtwc_sh SH171967 -17.5000 168.900 -1 -17.5000 168.900 TC -17.4909 168.788 1 12 116
1967027S18173 1967 10 SP MM NOT_NAMED 1967-02-04 09:00:00 TS -17.8001 169.430 main 216 216 P________PP___ SH171967 -17.7974 169.450 -1 -17.7974 169.450 TC -17.8056 169.389 1 13 123
1967027S18173 1967 10 SP MM NOT_NAMED 1967-02-04 12:00:00 TS -18.2000 170.000 main 294 294 O________OO___ jtwc_sh SH171967 -18.2000 170.000 -1 -18.2000 170.000 TC -18.2000 170.000 1 14 129
1967027S18173 1967 10 SP MM NOT_NAMED 1967-02-04 15:00:00 TS -18.6593 170.545 main 370 370 P________PP___ SH171967 -18.6773 170.550 -1 -18.6773 170.550 TC -18.6233 170.534 1 14 133
1967027S18173 1967 10 SP MM NOT_NAMED 1967-02-04 18:00:00 TS -19.1721 171.090 main 454 454 O________OP___ jtwc_sh SH171967 -19.2000 171.100 -1 -19.2000 171.100 TC -19.1164 171.071 1 15 135
1967027S18173 1967 10 SP MM NOT_NAMED 1967-02-04 21:00:00 TS -19.6836 171.631 main 530 530 P________PP___ SH171967 -19.6997 171.635 -1 -19.6997 171.635 TC -19.6513 171.622 1 15 135
1967027S18173 1967 10 SP MM NOT_NAMED 1967-02-05 00:00:00 TS -20.2000 172.200 main 580 545 O________OO___ jtwc_sh SH171967 -20.2000 172.200 -1 -20.2000 172.200 TC -20.2000 172.200 1 15 131
1967027S18173 1967 10 SP MM NOT_NAMED 1967-02-05 03:00:00 TS -20.6960 172.865 main 542 520 P________PP___ SH171967 -20.6924 172.835 -1 -20.6924 172.835 TC -20.7033 172.925 1 16 128
1967027S18173 1967 10 SP MM NOT_NAMED 1967-02-05 06:00:00 TS -21.2050 173.554 main 519 512 O________OP___ jtwc_sh SH171967 -21.2000 173.500 -1 -21.2000 173.500 TC -21.2151 173.662 1 17 129
1967027S18173 1967 10 SP MM NOT_NAMED 1967-02-05 09:00:00 TS -21.7382 174.251 main 510 510 P________PP___ SH171967 -21.7353 174.217 -1 -21.7353 174.217 TC -21.7440 174.318 1 16 133
1967027S18173 1967 10 SP MM NOT_NAMED 1967-02-05 12:00:00 TS -22.3000 174.800 main 537 537 O________OO___ jtwc_sh SH171967 -22.3000 174.800 -1 -22.3000 174.800 TC -22.3000 174.800 1 14 146
1967027S18173 1967 10 SP MM NOT_NAMED 1967-02-05 15:00:00 TS -22.8866 175.098 main 583 583 P________PP___ SH171967 -22.8846 175.128 -1 -22.8846 175.128 TC -22.8908 175.039 1 13 165
1967027S18173 1967 10 SP MM NOT_NAMED 1967-02-05 18:00:00 TS -23.5036 175.158 main 642 642 O________OP___ jtwc_sh SH171967 -23.5000 175.200 -1 -23.5000 175.200 TC -23.5108 175.075 1 13 183
1967027S18173 1967 10 SP MM NOT_NAMED 1967-02-05 21:00:00 TS -24.1454 175.030 main 712 712 P________PP___ SH171967 -24.1428 175.058 -1 -24.1428 175.058 TC -24.1506 174.973 1 13 194
1967027S18173 1967 10 SP MM NOT_NAMED 1967-02-06 00:00:00 TS -24.8000 174.800 main 792 O________OO___ jtwc_sh SH171967 -24.8000 174.800 -1 -24.8000 174.800 TC -24.8000 174.800 1 14 198

デジタル台風データ・検索

IBTrACS Databaseについて

本データベースは、米国NOAAが公開する1842年以降の世界の熱帯低気圧のベストトラックデータアーカイブInternational Best Track Archive for Climate Stewardship (IBTrACS)を、ウェブで閲覧しやすい形式に変換したものです。

最終更新日:2021-11-26